createdAt,value
2019-04-26T17:18:37.388Z,5.47
2019-04-26T17:21:08.532Z,5.30
2019-04-26T17:23:44.202Z,5.00
2019-04-26T17:26:23.693Z,5.12
2019-04-26T17:28:55.619Z,4.80
2019-04-26T17:31:27.093Z,4.97
2019-04-26T17:33:58.066Z,4.83
2019-04-26T17:36:29.028Z,4.23
2019-04-26T17:39:00.633Z,5.40
2019-04-26T17:41:33.285Z,4.50
2019-04-26T17:44:10.709Z,4.47
2019-04-26T17:46:37.068Z,4.70
2019-04-26T17:49:08.034Z,4.23
2019-04-26T17:51:42.398Z,4.80
2019-04-26T17:54:26.602Z,4.67
2019-04-26T17:56:45.445Z,4.33
2019-04-26T17:59:32.564Z,4.92
2019-04-26T18:01:59.530Z,5.58
2019-04-26T18:04:31.959Z,5.03
2019-04-26T18:07:02.954Z,4.85
2019-04-26T18:09:43.046Z,5.12
2019-04-26T18:12:03.345Z,5.47
2019-04-26T18:14:32.539Z,5.92
2019-04-26T18:17:05.167Z,5.63
2019-04-26T18:19:43.734Z,5.62
2019-04-26T18:22:23.219Z,5.87
2019-04-26T18:24:54.349Z,6.30
2019-04-26T18:27:25.397Z,6.43
2019-04-26T18:29:59.872Z,7.53
2019-04-26T18:32:29.140Z,7.37
2019-04-26T18:35:00.133Z,7.07
2019-04-26T18:37:36.457Z,7.55
2019-04-26T18:40:06.584Z,8.18
2019-04-26T18:42:41.879Z,8.60
2019-04-26T18:45:10.581Z,8.00
2019-04-26T18:47:43.753Z,9.03
2019-04-26T18:50:16.437Z,8.40
2019-04-26T18:55:31.174Z,9.10
2019-04-26T18:58:05.381Z,9.83
2019-04-26T19:00:36.654Z,10.00
2019-04-26T19:03:07.638Z,9.13
2019-04-26T19:05:38.631Z,10.00
2019-04-26T19:08:10.054Z,10.13
2019-04-26T19:10:43.172Z,9.90
2019-04-26T19:13:18.352Z,9.70
2019-04-26T19:15:51.581Z,11.40
2019-04-26T19:18:32.133Z,9.95
2019-04-26T19:21:03.257Z,11.75
2019-04-26T19:23:34.233Z,10.95
2019-04-26T19:26:05.292Z,10.57
2019-04-26T19:28:39.939Z,11.50
2019-04-26T19:31:09.951Z,11.08
2019-04-26T19:33:42.777Z,11.60
2019-04-26T19:36:14.016Z,11.93
2019-04-26T19:38:49.941Z,11.43
2019-04-26T19:41:27.212Z,10.59
2019-04-26T19:43:58.386Z,11.68
2019-04-26T19:46:31.596Z,11.07
2019-04-26T19:49:21.513Z,12.53
2019-04-26T19:52:00.547Z,12.05
2019-04-26T19:54:38.330Z,12.35
2019-04-26T19:57:07.936Z,12.63
2019-04-26T19:59:38.939Z,12.60
2019-04-26T20:02:12.830Z,12.00
2019-04-26T20:04:43.807Z,11.25
2019-04-26T20:07:14.767Z,12.90
2019-04-26T20:09:45.782Z,11.88
2019-04-26T20:12:16.772Z,12.50
2019-04-26T20:14:51.254Z,13.07
2019-04-26T20:17:21.840Z,12.80
2019-04-26T20:19:54.490Z,12.93
2019-04-26T20:22:28.683Z,13.62
2019-04-26T20:24:58.506Z,13.00
2019-04-26T20:27:29.524Z,12.47
2019-04-26T20:30:02.381Z,13.33
2019-04-26T20:32:34.923Z,13.25
2019-04-26T20:35:13.219Z,13.88
2019-04-26T20:37:45.459Z,12.78
2019-04-26T20:40:21.751Z,13.10
2019-04-26T20:42:49.375Z,12.95
2019-04-26T20:45:22.032Z,13.10
2019-04-26T20:47:55.659Z,13.03
2019-04-26T20:50:28.494Z,13.22
2019-04-26T20:53:00.538Z,13.10
2019-04-26T20:55:34.592Z,14.13
2019-04-26T20:58:08.515Z,13.22
2019-04-26T21:00:38.120Z,14.38
2019-04-26T21:03:21.179Z,13.47
2019-04-26T21:05:46.172Z,13.60
2019-04-26T21:08:15.427Z,12.45
2019-04-26T21:10:46.569Z,14.20
2019-04-26T21:13:17.568Z,14.15
2019-04-26T21:15:56.388Z,14.00
2019-04-26T21:18:22.962Z,12.20
2019-04-26T21:20:54.099Z,13.40
2019-04-26T21:23:25.096Z,14.10
2019-04-26T21:26:07.073Z,13.03
2019-04-26T21:28:43.915Z,13.45
2019-04-26T21:31:22.540Z,14.20
2019-04-26T21:33:55.193Z,13.58
2019-04-26T21:36:45.947Z,13.18
2019-04-26T21:39:23.929Z,13.88
2019-04-26T21:41:56.549Z,15.18
2019-04-26T21:44:27.543Z,14.87
2019-04-26T21:46:59.056Z,13.83
2019-04-26T21:49:30.207Z,12.60
2019-04-26T21:52:01.183Z,14.47
2019-04-26T21:54:33.015Z,14.30
2019-04-26T21:59:40.711Z,13.98
2019-04-26T22:02:08.784Z,12.55
2019-04-26T22:04:39.762Z,14.05
2019-04-26T22:07:10.742Z,14.80
2019-04-26T22:09:58.121Z,15.77
2019-04-26T22:12:31.269Z,15.70
2019-04-26T22:15:19.784Z,15.65
2019-04-26T22:17:55.179Z,16.00
2019-04-26T22:20:27.855Z,14.85
2019-04-26T22:23:03.157Z,14.93
2019-04-26T22:25:35.768Z,15.70
2019-04-26T22:28:06.776Z,16.10
2019-04-26T22:30:37.808Z,16.13
2019-04-26T22:33:08.812Z,16.73
2019-04-26T22:35:39.787Z,16.23
2019-04-26T22:38:17.535Z,17.10
2019-04-26T22:40:53.289Z,16.10
2019-04-26T22:43:38.974Z,17.07
2019-04-26T22:46:11.592Z,17.32
2019-04-26T22:48:44.223Z,15.43
2019-04-26T22:51:15.198Z,17.65
2019-04-26T22:53:46.173Z,17.97
2019-04-26T22:56:17.646Z,20.03
2019-04-26T22:58:48.643Z,17.12
2019-04-26T23:01:19.649Z,17.40
2019-04-26T23:03:50.623Z,17.63
2019-04-26T23:06:23.523Z,17.07
2019-04-26T23:08:55.827Z,18.12
2019-04-26T23:11:27.150Z,17.23
2019-04-26T23:14:18.837Z,17.92
2019-04-26T23:17:08.453Z,16.62
2019-04-26T23:19:43.779Z,17.60
2019-04-26T23:22:14.837Z,17.57
2019-04-26T23:24:49.207Z,19.73
2019-04-26T23:27:20.439Z,17.60
2019-04-26T23:29:56.828Z,18.67
2019-04-26T23:32:25.225Z,19.00
2019-04-26T23:34:58.229Z,19.02
2019-04-26T23:37:28.904Z,19.73
2019-04-26T23:40:00.249Z,20.27
2019-04-26T23:42:33.127Z,21.62
2019-04-26T23:45:05.130Z,22.25
2019-04-26T23:47:38.899Z,22.55
2019-04-26T23:50:08.847Z,21.15
2019-04-26T23:52:39.908Z,20.37
2019-04-26T23:55:10.876Z,24.15
2019-04-26T23:57:43.440Z,22.30
